createdAt,value
2019-04-01T00:00:26.855Z,73.40
2019-04-01T00:02:56.477Z,72.70
2019-04-01T00:05:28.573Z,72.30
2019-04-01T00:07:59.893Z,72.30
2019-04-01T00:10:29.704Z,72.30
2019-04-01T00:12:59.437Z,72.20
2019-04-01T00:15:28.892Z,72.70
2019-04-01T00:17:57.667Z,72.30
2019-04-01T00:20:32.369Z,73.00
2019-04-01T00:22:57.468Z,73.60
2019-04-01T00:25:28.459Z,73.80
2019-04-01T00:28:01.467Z,75.00
2019-04-01T00:30:30.240Z,75.30
2019-04-01T00:32:59.226Z,76.50
2019-04-01T00:35:27.880Z,77.20
2019-04-01T00:37:56.699Z,78.10
2019-04-01T00:40:25.387Z,78.80
2019-04-01T00:42:55.868Z,79.20
2019-04-01T00:45:26.573Z,79.50
2019-04-01T00:47:56.932Z,79.80
2019-04-01T00:50:25.633Z,79.80
2019-04-01T00:52:55.632Z,78.80
2019-04-01T00:55:24.379Z,78.30
2019-04-01T00:57:54.847Z,78.10
2019-04-01T01:00:23.475Z,78.00
2019-04-01T01:02:57.648Z,78.40
2019-04-01T01:05:27.336Z,79.00
2019-04-01T01:07:56.138Z,79.80
2019-04-01T01:10:26.201Z,80.10
2019-04-01T01:12:55.604Z,80.40
2019-04-01T01:15:25.007Z,80.40
2019-04-01T01:17:54.400Z,80.50
2019-04-01T01:20:24.471Z,81.40
2019-04-01T01:22:53.278Z,82.00
2019-04-01T01:25:24.046Z,82.40
2019-04-01T01:27:52.777Z,83.10
2019-04-01T01:30:21.589Z,83.30
2019-04-01T01:32:50.305Z,83.90
2019-04-01T01:35:20.122Z,84.60
2019-04-01T01:37:56.552Z,85.20
2019-04-01T01:40:25.394Z,85.50
2019-04-01T01:42:54.352Z,86.30
2019-04-01T01:45:23.045Z,86.90
2019-04-01T01:47:51.832Z,87.50
2019-04-01T01:50:22.613Z,87.90
2019-04-01T01:52:53.079Z,88.30
2019-04-01T01:55:21.864Z,90.00
2019-04-01T01:57:50.582Z,89.70
2019-04-01T02:00:23.495Z,90.10
2019-04-01T02:03:04.259Z,90.20
2019-04-01T02:05:33.131Z,90.30
2019-04-01T02:08:01.862Z,90.50
2019-04-01T02:10:32.121Z,90.70
2019-04-01T02:13:00.944Z,90.90
2019-04-01T02:15:31.276Z,91.10
2019-04-01T02:17:59.866Z,91.50
2019-04-01T02:20:30.477Z,91.60
2019-04-01T02:22:59.061Z,92.10
2019-04-01T02:25:27.831Z,92.40
2019-04-01T02:27:56.614Z,92.70
2019-04-01T02:30:25.769Z,92.60
2019-04-01T02:32:55.149Z,92.80
2019-04-01T02:35:25.084Z,92.90
2019-04-01T02:37:55.970Z,93.20
2019-04-01T02:40:26.844Z,93.70
2019-04-01T02:42:57.212Z,93.50
2019-04-01T02:45:25.881Z,94.20
2019-04-01T02:47:54.906Z,94.80
2019-04-01T02:50:23.722Z,95.00
2019-04-01T02:52:52.997Z,95.10
2019-04-01T02:55:21.730Z,95.00
2019-04-01T02:57:50.421Z,95.30
2019-04-01T03:00:19.209Z,95.30
2019-04-01T03:02:52.197Z,95.60
2019-04-01T03:05:23.118Z,96.40
2019-04-01T03:07:51.970Z,96.10
2019-04-01T03:10:24.669Z,96.00
2019-04-01T03:12:55.436Z,96.30
2019-04-01T03:15:24.227Z,95.80
2019-04-01T03:17:53.634Z,95.90
2019-04-01T03:20:26.455Z,96.10
2019-04-01T03:22:57.583Z,96.20
2019-04-01T03:25:26.963Z,96.10
2019-04-01T03:27:57.266Z,97.00
2019-04-01T03:30:27.817Z,97.20
2019-04-01T03:32:59.257Z,97.00
2019-04-01T03:35:28.049Z,96.90
2019-04-01T03:37:56.913Z,97.60
2019-04-01T03:40:25.682Z,97.20
2019-04-01T03:42:54.465Z,97.40
2019-04-01T03:45:23.246Z,98.10
2019-04-01T03:47:52.057Z,98.80
2019-04-01T03:50:20.832Z,98.50
2019-04-01T03:52:50.081Z,98.70
2019-04-01T03:55:19.239Z,98.30
2019-04-01T03:57:51.214Z,97.70
2019-04-01T04:00:18.811Z,97.20
2019-04-01T04:02:49.239Z,96.90
2019-04-01T04:05:19.513Z,96.70
2019-04-01T04:07:49.998Z,96.40
2019-04-01T04:10:19.699Z,96.10
2019-04-01T04:12:49.302Z,95.90
2019-04-01T04:15:17.992Z,95.90
2019-04-01T04:17:47.680Z,95.90
2019-04-01T04:20:16.382Z,95.70
2019-04-01T04:22:45.770Z,95.90
2019-04-01T04:25:15.246Z,95.90
2019-04-01T04:27:45.216Z,96.30
2019-04-01T04:30:19.052Z,96.10
2019-04-01T04:32:53.047Z,96.20
2019-04-01T04:35:23.259Z,96.00
2019-04-01T04:37:52.020Z,96.40
2019-04-01T04:40:20.705Z,95.90
2019-04-01T04:42:56.417Z,95.70
2019-04-01T04:45:26.976Z,95.30
2019-04-01T04:47:57.019Z,95.00
2019-04-01T04:50:28.902Z,94.70
2019-04-01T04:53:01.032Z,94.80
2019-04-01T04:55:32.247Z,94.60
2019-04-01T04:58:01.045Z,94.40
2019-04-01T05:00:31.754Z,94.30
2019-04-01T05:03:02.487Z,94.10
2019-04-01T05:05:32.692Z,93.80
2019-04-01T05:08:01.493Z,93.60
2019-04-01T05:10:34.345Z,93.30
2019-04-01T05:13:06.780Z,93.20
2019-04-01T05:15:35.624Z,93.20
2019-04-01T05:18:05.030Z,92.90
2019-04-01T05:20:36.824Z,92.70
2019-04-01T05:23:05.783Z,92.00
2019-04-01T05:25:35.442Z,91.60
2019-04-01T05:28:04.070Z,90.70
2019-04-01T05:30:35.711Z,88.20
2019-04-01T05:33:07.553Z,83.70
2019-04-01T05:35:41.513Z,82.30
2019-04-01T05:38:13.074Z,79.40
2019-04-01T05:40:43.494Z,76.10
2019-04-01T05:43:12.607Z,74.30
2019-04-01T05:45:45.838Z,73.30
2019-04-01T05:48:20.475Z,71.70
2019-04-01T05:50:49.655Z,69.40
2019-04-01T05:53:21.831Z,69.00
2019-04-01T05:55:51.641Z,68.40
2019-04-01T05:58:20.927Z,66.10
2019-04-01T06:00:55.351Z,66.20
2019-04-01T06:03:24.728Z,66.20
2019-04-01T06:05:55.602Z,68.00
2019-04-01T06:08:27.498Z,68.30
2019-04-01T06:10:57.424Z,65.00
2019-04-01T06:13:27.841Z,63.70
2019-04-01T06:15:58.212Z,64.60
2019-04-01T06:18:30.271Z,64.10
2019-04-01T06:21:01.585Z,61.70
2019-04-01T06:23:33.654Z,60.20
2019-04-01T06:26:04.399Z,58.70
2019-04-01T06:28:34.312Z,59.10
2019-04-01T06:31:06.292Z,59.40
2019-04-01T06:33:38.248Z,59.60
2019-04-01T06:36:07.417Z,59.50
2019-04-01T06:38:37.062Z,58.90
2019-04-01T06:41:06.893Z,58.90
2019-04-01T06:43:36.595Z,59.00
2019-04-01T06:46:07.100Z,59.40
2019-04-01T06:48:37.085Z,58.90
2019-04-01T06:51:08.473Z,57.10
2019-04-01T06:53:37.808Z,55.60
2019-04-01T06:56:07.090Z,55.40
2019-04-01T06:58:37.424Z,53.90
2019-04-01T07:01:06.405Z,53.30
2019-04-01T07:03:36.107Z,52.70
2019-04-01T07:06:04.849Z,53.00
2019-04-01T07:08:34.942Z,52.00
2019-04-01T07:11:03.763Z,52.70
2019-04-01T07:13:39.711Z,53.20
2019-04-01T07:16:15.258Z,51.70
2019-04-01T07:18:40.071Z,48.70
2019-04-01T07:21:11.168Z,46.20
2019-04-01T07:23:40.105Z,46.80
2019-04-01T07:26:12.109Z,46.40
2019-04-01T07:28:41.172Z,45.90
2019-04-01T07:31:10.157Z,45.40
2019-04-01T07:33:38.979Z,44.80
2019-04-01T07:36:11.633Z,42.90
2019-04-01T07:38:40.410Z,43.80
2019-04-01T07:41:09.241Z,43.50
2019-04-01T07:43:38.443Z,43.10
2019-04-01T07:46:08.321Z,41.80
2019-04-01T07:48:44.900Z,39.80
2019-04-01T07:51:13.807Z,38.70
2019-04-01T07:53:40.985Z,40.50
2019-04-01T07:56:10.908Z,42.40
2019-04-01T07:58:41.253Z,45.40
2019-04-01T08:01:11.973Z,46.80
2019-04-01T08:03:42.592Z,48.20
2019-04-01T08:06:13.631Z,46.40
2019-04-01T08:08:46.256Z,43.50
2019-04-01T08:11:14.533Z,42.80
2019-04-01T08:13:45.934Z,45.80
2019-04-01T08:16:14.862Z,47.90
2019-04-01T08:18:43.742Z,50.20
2019-04-01T08:21:15.704Z,52.20
2019-04-01T08:23:44.478Z,53.00
2019-04-01T08:26:16.493Z,51.20
2019-04-01T08:28:46.278Z,53.50
2019-04-01T08:31:15.161Z,53.80
2019-04-01T08:33:44.626Z,53.30
2019-04-01T08:36:13.416Z,52.60
2019-04-01T08:38:42.174Z,52.90
2019-04-01T08:41:10.784Z,53.40
2019-04-01T08:43:41.229Z,54.10
2019-04-01T08:46:11.802Z,54.70
2019-04-01T08:48:40.474Z,51.50
2019-04-01T08:51:19.356Z,50.10
2019-04-01T08:53:51.906Z,48.20
2019-04-01T08:56:22.299Z,47.80
2019-04-01T08:58:51.871Z,48.80
2019-04-01T09:01:34.593Z,50.70
2019-04-01T09:03:52.933Z,50.40
2019-04-01T09:06:25.701Z,50.60
2019-04-01T09:08:56.419Z,51.70
2019-04-01T09:11:27.440Z,50.80
2019-04-01T09:13:57.319Z,52.90
2019-04-01T09:16:27.946Z,51.90
2019-04-01T09:19:01.531Z,52.60
2019-04-01T09:21:30.232Z,49.20
2019-04-01T09:24:00.314Z,48.40
2019-04-01T09:26:29.122Z,44.90
2019-04-01T09:28:58.040Z,44.80
2019-04-01T09:31:27.384Z,42.90
2019-04-01T09:33:56.444Z,42.90
2019-04-01T09:36:25.411Z,41.20
2019-04-01T09:38:54.098Z,40.90
2019-04-01T09:41:22.881Z,41.60
2019-04-01T09:43:52.599Z,41.30
2019-04-01T09:46:22.499Z,38.50
2019-04-01T09:48:52.361Z,37.40
2019-04-01T09:51:21.749Z,40.10
2019-04-01T09:53:51.154Z,43.00
2019-04-01T09:56:19.853Z,45.70
2019-04-01T09:58:48.641Z,46.00
2019-04-01T10:01:18.142Z,45.50
2019-04-01T10:03:48.462Z,44.00
2019-04-01T10:06:17.205Z,45.30
2019-04-01T10:08:46.057Z,45.40
2019-04-01T10:11:14.763Z,45.30
2019-04-01T10:13:45.640Z,44.50
2019-04-01T10:16:14.525Z,45.30
2019-04-01T10:18:43.312Z,44.10
2019-04-01T10:21:13.752Z,43.90
2019-04-01T10:23:42.498Z,40.30
2019-04-01T10:26:12.371Z,38.60
2019-04-01T10:28:42.050Z,36.50
2019-04-01T10:31:11.790Z,33.40
2019-04-01T10:33:40.949Z,32.60
2019-04-01T10:36:10.528Z,34.50
2019-04-01T10:38:40.534Z,33.50
2019-04-01T10:41:10.468Z,33.60
2019-04-01T10:43:45.816Z,33.20
2019-04-01T10:46:15.040Z,32.30
2019-04-01T10:48:47.181Z,30.20
2019-04-01T10:51:22.024Z,30.10
2019-04-01T10:53:51.968Z,32.00
2019-04-01T10:56:20.651Z,31.20
2019-04-01T10:58:50.294Z,30.20
2019-04-01T11:01:29.966Z,29.50
2019-04-01T11:03:58.793Z,30.00
2019-04-01T11:06:29.010Z,32.70
2019-04-01T11:08:57.824Z,32.50
2019-04-01T11:11:27.623Z,35.00
2019-04-01T11:13:56.415Z,35.60
2019-04-01T11:16:25.323Z,33.70
2019-04-01T11:18:54.025Z,32.10
2019-04-01T11:21:24.751Z,31.20
2019-04-01T11:23:54.716Z,30.50
2019-04-01T11:26:25.994Z,29.90
2019-04-01T11:28:55.807Z,29.20
2019-04-01T11:31:24.528Z,29.30
2019-04-01T11:33:53.500Z,28.50
2019-04-01T11:36:25.730Z,27.30
2019-04-01T11:38:55.047Z,28.40
2019-04-01T11:41:24.796Z,29.00
2019-04-01T11:43:53.949Z,28.50
2019-04-01T11:46:23.508Z,29.20
2019-04-01T11:48:53.051Z,30.40
2019-04-01T11:51:32.775Z,29.70
2019-04-01T11:53:57.047Z,28.50
2019-04-01T11:56:27.093Z,28.40
2019-04-01T11:58:58.644Z,29.00
2019-04-01T12:01:28.866Z,29.60
2019-04-01T12:03:58.580Z,28.20
2019-04-01T12:06:28.093Z,28.30
2019-04-01T12:08:58.182Z,28.50
2019-04-01T12:11:28.748Z,28.80
2019-04-01T12:13:57.545Z,29.80
2019-04-01T12:16:27.933Z,29.60
2019-04-01T12:18:57.143Z,29.80
2019-04-01T12:21:25.790Z,29.70
2019-04-01T12:23:54.515Z,30.70
2019-04-01T12:26:23.280Z,30.20
2019-04-01T12:28:52.038Z,30.70
2019-04-01T12:31:21.717Z,31.40
2019-04-01T12:33:52.135Z,30.60
2019-04-01T12:36:20.790Z,30.00
2019-04-01T12:38:49.560Z,29.10
2019-04-01T12:41:19.044Z,29.20
2019-04-01T12:43:47.788Z,31.30
2019-04-01T12:46:17.781Z,29.90
2019-04-01T12:48:46.466Z,31.10
2019-04-01T12:51:15.180Z,29.30
2019-04-01T12:53:43.924Z,29.20
2019-04-01T12:56:12.612Z,29.70
2019-04-01T12:58:42.484Z,29.00
2019-04-01T13:01:15.294Z,29.50
2019-04-01T13:03:46.700Z,30.50
2019-04-01T13:06:16.963Z,29.40
2019-04-01T13:08:45.504Z,29.10
2019-04-01T13:11:14.546Z,30.30
2019-04-01T13:13:43.900Z,29.10
2019-04-01T13:16:14.796Z,29.40
2019-04-01T13:18:43.395Z,28.80
2019-04-01T13:21:12.205Z,27.50
2019-04-01T13:23:40.840Z,28.10
2019-04-01T13:26:09.687Z,29.20
2019-04-01T13:28:42.161Z,29.50
2019-04-01T13:31:12.831Z,29.60
2019-04-01T13:33:41.572Z,28.30
2019-04-01T13:36:12.977Z,28.70
2019-04-01T13:38:41.685Z,29.10
2019-04-01T13:41:13.049Z,28.80
2019-04-01T13:43:40.827Z,28.30
2019-04-01T13:46:09.408Z,28.30
2019-04-01T13:48:38.089Z,28.10
2019-04-01T13:51:06.862Z,27.50
2019-04-01T13:53:35.507Z,27.70
2019-04-01T13:56:04.278Z,26.90
2019-04-01T13:58:33.012Z,27.40
2019-04-01T14:01:01.835Z,28.20
2019-04-01T14:03:31.745Z,30.00
2019-04-01T14:06:01.800Z,30.30
2019-04-01T14:08:32.861Z,30.20
2019-04-01T14:11:01.684Z,30.50
2019-04-01T14:13:31.507Z,30.20
2019-04-01T14:16:02.536Z,30.00
2019-04-01T14:18:31.798Z,29.10
2019-04-01T14:21:15.194Z,29.30
2019-04-01T14:23:36.482Z,29.10
2019-04-01T14:26:06.906Z,29.20
2019-04-01T14:28:41.783Z,30.00
2019-04-01T14:31:11.766Z,30.50
2019-04-01T14:33:40.441Z,30.00
2019-04-01T14:36:10.502Z,29.50
2019-04-01T14:38:39.704Z,30.00
2019-04-01T14:41:09.376Z,29.80
2019-04-01T14:43:38.056Z,29.80
2019-04-01T14:46:06.799Z,29.90
2019-04-01T14:48:36.901Z,29.70
2019-04-01T14:51:05.847Z,29.20
2019-04-01T14:53:37.207Z,29.30
2019-04-01T14:56:06.198Z,29.10
2019-04-01T14:58:34.841Z,29.40
2019-04-01T15:01:05.751Z,29.40
2019-04-01T15:03:39.317Z,29.10
2019-04-01T15:06:08.603Z,30.20
2019-04-01T15:08:38.373Z,29.60
2019-04-01T15:11:08.451Z,30.40
2019-04-01T15:13:37.251Z,30.10
2019-04-01T15:16:11.083Z,29.30
2019-04-01T15:18:40.065Z,29.60
2019-04-01T15:21:11.672Z,29.30
2019-04-01T15:23:39.342Z,29.50
2019-04-01T15:26:08.384Z,29.50
2019-04-01T15:28:37.247Z,29.80
2019-04-01T15:31:06.700Z,30.50
2019-04-01T15:33:37.014Z,30.50
2019-04-01T15:36:06.304Z,30.60
2019-04-01T15:38:37.337Z,30.80
2019-04-01T15:41:06.023Z,29.80
2019-04-01T15:43:34.656Z,29.90
2019-04-01T15:46:06.556Z,29.90
2019-04-01T15:48:36.622Z,29.30
2019-04-01T15:51:05.571Z,29.20
2019-04-01T15:53:35.969Z,30.00
2019-04-01T15:56:04.879Z,29.50
2019-04-01T15:58:35.852Z,29.80
2019-04-01T16:01:06.221Z,30.00
2019-04-01T16:03:35.301Z,30.00
2019-04-01T16:06:07.623Z,30.20
2019-04-01T16:08:44.118Z,30.90
2019-04-01T16:11:13.315Z,30.40
2019-04-01T16:13:47.728Z,30.40
2019-04-01T16:16:16.976Z,30.10
2019-04-01T16:18:46.067Z,30.50
2019-04-01T16:21:15.682Z,31.00
2019-04-01T16:23:45.002Z,31.30
2019-04-01T16:26:14.879Z,31.40
2019-04-01T16:28:44.670Z,31.10
2019-04-01T16:31:15.015Z,31.20
2019-04-01T16:33:44.729Z,31.70
2019-04-01T16:36:15.415Z,31.70
2019-04-01T16:38:44.177Z,32.30
2019-04-01T16:41:14.271Z,32.50
2019-04-01T16:43:46.231Z,32.90
2019-04-01T16:46:15.057Z,33.10
2019-04-01T16:48:46.448Z,33.10
2019-04-01T16:51:17.417Z,33.90
2019-04-01T16:53:48.451Z,34.20
2019-04-01T16:56:17.391Z,34.20
2019-04-01T16:58:47.499Z,34.70
2019-04-01T17:01:16.912Z,35.20
2019-04-01T17:03:45.736Z,35.50
2019-04-01T17:06:22.346Z,35.40
2019-04-01T17:09:08.502Z,36.10
2019-04-01T17:11:37.657Z,36.70
2019-04-01T17:14:09.279Z,36.50
2019-04-01T17:16:39.302Z,37.00
2019-04-01T17:19:09.164Z,37.10
2019-04-01T17:21:38.615Z,37.40
2019-04-01T17:24:07.407Z,37.90
2019-04-01T17:26:46.609Z,38.10
2019-04-01T17:29:15.223Z,38.20
2019-04-01T17:31:44.376Z,38.00
2019-04-01T17:34:13.316Z,39.10
2019-04-01T17:36:43.948Z,38.70
2019-04-01T17:39:12.780Z,38.60
2019-04-01T17:41:46.339Z,39.00
2019-04-01T17:44:14.810Z,39.30
2019-04-01T17:46:43.593Z,39.90
2019-04-01T17:49:12.570Z,40.20
2019-04-01T17:51:41.443Z,40.30
2019-04-01T17:54:11.103Z,40.70
2019-04-01T17:56:39.768Z,41.40
2019-04-01T17:59:08.582Z,42.10
2019-04-01T18:01:43.071Z,42.90
2019-04-01T18:04:12.074Z,42.80
2019-04-01T18:06:42.402Z,43.00
2019-04-01T18:09:13.417Z,43.60
2019-04-01T18:11:42.291Z,43.90
2019-04-01T18:14:11.074Z,43.80
2019-04-01T18:16:43.452Z,44.50
2019-04-01T18:19:16.940Z,44.80
2019-04-01T18:21:45.587Z,45.40
2019-04-01T18:24:18.448Z,45.60
2019-04-01T18:26:46.954Z,46.10
2019-04-01T18:29:18.076Z,46.60
2019-04-01T18:31:47.965Z,46.80
2019-04-01T18:34:16.640Z,46.90
2019-04-01T18:36:47.896Z,47.50
2019-04-01T18:39:18.764Z,48.60
2019-04-01T18:41:48.125Z,48.80
2019-04-01T18:44:18.597Z,48.40
2019-04-01T18:46:47.290Z,49.10
2019-04-01T18:49:17.183Z,49.40
2019-04-01T18:51:47.610Z,50.50
2019-04-01T18:54:16.442Z,51.50
2019-04-01T18:56:47.744Z,51.60
2019-04-01T18:59:17.042Z,51.30
2019-04-01T19:01:51.169Z,51.50
2019-04-01T19:04:18.951Z,51.80
2019-04-01T19:06:49.816Z,51.90
2019-04-01T19:09:18.143Z,52.30
2019-04-01T19:11:46.996Z,52.90
2019-04-01T19:14:15.826Z,53.30
2019-04-01T19:16:46.200Z,53.30
2019-04-01T19:19:15.270Z,53.40
2019-04-01T19:21:45.055Z,52.70
2019-04-01T19:24:14.826Z,53.60
2019-04-01T19:26:54.217Z,53.20
2019-04-01T19:29:25.044Z,53.10
2019-04-01T19:31:57.544Z,53.60
2019-04-01T19:34:30.772Z,53.30
2019-04-01T19:36:56.750Z,53.50
2019-04-01T19:39:29.932Z,52.80
2019-04-01T19:41:57.271Z,53.10
2019-04-01T19:44:27.427Z,53.80
2019-04-01T19:46:57.526Z,54.00
2019-04-01T19:49:26.320Z,53.90
2019-04-01T19:51:56.290Z,53.90
2019-04-01T19:54:33.521Z,54.90
2019-04-01T19:57:00.478Z,54.10
2019-04-01T19:59:31.311Z,52.90
2019-04-01T20:02:01.284Z,53.80
2019-04-01T20:04:32.848Z,53.30
2019-04-01T20:07:06.842Z,53.50
2019-04-01T20:09:36.267Z,53.30
2019-04-01T20:12:04.974Z,53.40
2019-04-01T20:14:33.684Z,53.30
2019-04-01T20:17:04.350Z,53.40
2019-04-01T20:19:33.202Z,53.70
2019-04-01T20:22:04.402Z,53.50
2019-04-01T20:24:33.176Z,53.80
2019-04-01T20:27:01.945Z,54.10
2019-04-01T20:29:32.476Z,54.70
2019-04-01T20:32:16.269Z,54.10
2019-04-01T20:34:34.253Z,55.10
2019-04-01T20:37:05.579Z,54.50
2019-04-01T20:39:36.914Z,54.70
2019-04-01T20:42:07.326Z,54.60
2019-04-01T20:44:37.485Z,54.80
2019-04-01T20:47:07.980Z,54.80
2019-04-01T20:49:37.963Z,54.40
2019-04-01T20:52:06.811Z,54.80
2019-04-01T20:54:38.997Z,54.30
2019-04-01T20:57:09.019Z,54.60
2019-04-01T20:59:41.123Z,54.90
2019-04-01T21:02:10.380Z,54.80
2019-04-01T21:04:39.195Z,54.40
2019-04-01T21:07:09.902Z,54.40
2019-04-01T21:09:38.654Z,54.50
2019-04-01T21:12:08.393Z,55.80
2019-04-01T21:14:37.602Z,55.70
2019-04-01T21:17:06.936Z,55.40
2019-04-01T21:19:35.774Z,55.20
2019-04-01T21:22:04.522Z,55.40
2019-04-01T21:24:34.041Z,56.00
2019-04-01T21:27:05.458Z,56.30
2019-04-01T21:29:37.233Z,55.70
2019-04-01T21:32:05.943Z,56.10
2019-04-01T21:34:35.162Z,56.40
2019-04-01T21:37:03.795Z,57.00
2019-04-01T21:39:34.310Z,56.50
2019-04-01T21:42:05.767Z,55.90
2019-04-01T21:44:34.534Z,56.20
2019-04-01T21:47:03.293Z,56.00
2019-04-01T21:49:32.346Z,56.60
2019-04-01T21:52:03.490Z,56.30
2019-04-01T21:54:32.896Z,56.20
2019-04-01T21:57:02.700Z,56.20
2019-04-01T21:59:32.818Z,56.40
2019-04-01T22:02:01.546Z,56.20
2019-04-01T22:04:31.883Z,55.80
2019-04-01T22:07:00.519Z,55.80
2019-04-01T22:09:29.254Z,55.50
2019-04-01T22:11:59.266Z,55.60
2019-04-01T22:14:28.389Z,55.10
2019-04-01T22:16:58.159Z,54.90
2019-04-01T22:19:26.788Z,55.10
2019-04-01T22:21:55.979Z,54.60
2019-04-01T22:24:25.223Z,54.40
2019-04-01T22:26:53.933Z,54.90
2019-04-01T22:29:23.498Z,54.40
2019-04-01T22:31:52.108Z,54.40
2019-04-01T22:34:20.801Z,54.10
2019-04-01T22:36:50.295Z,53.90
2019-04-01T22:39:27.009Z,53.90
2019-04-01T22:41:52.697Z,53.60
2019-04-01T22:44:24.370Z,53.90
2019-04-01T22:46:53.160Z,53.40
2019-04-01T22:49:21.887Z,53.50
2019-04-01T22:51:50.636Z,53.40
2019-04-01T22:54:19.535Z,53.10
2019-04-01T22:56:50.303Z,53.20
2019-04-01T22:59:19.291Z,53.30
2019-04-01T23:01:48.767Z,53.40
2019-04-01T23:04:17.750Z,53.30
2019-04-01T23:06:47.960Z,52.90
2019-04-01T23:09:17.249Z,52.90
2019-04-01T23:11:45.866Z,52.80
2019-04-01T23:14:15.112Z,53.00
2019-04-01T23:16:43.838Z,53.40
2019-04-01T23:19:14.622Z,53.00
2019-04-01T23:21:43.397Z,53.20
2019-04-01T23:24:13.795Z,53.40
2019-04-01T23:26:45.752Z,53.30
2019-04-01T23:29:14.424Z,53.30
2019-04-01T23:31:43.217Z,53.10
2019-04-01T23:34:12.063Z,53.10
2019-04-01T23:36:41.826Z,53.00
2019-04-01T23:39:11.636Z,52.70
2019-04-01T23:41:40.442Z,52.90
2019-04-01T23:44:10.306Z,52.90
2019-04-01T23:46:39.036Z,53.10
2019-04-01T23:49:07.695Z,53.30
2019-04-01T23:51:37.045Z,53.50
2019-04-01T23:54:06.997Z,53.60
2019-04-01T23:56:35.581Z,53.70
2019-04-01T23:59:04.451Z,53.70
